< < Back
Terminal Aerodrome Forecast


Current Version              Previous Versions:   1  2  3  4  5  6  7  8  9  

Terminal Aerodrome Forecast

654
FTUS42 KFFC 242100 AAA
TAFCSG
TAF AMD
KCSG 242134Z 2422/2518 VRB04KT P6SM SKC
     FM250100 00000KT P6SM SKC
     FM251700 33005KT P6SM SKC=

Latest METAR

443
SAUS70 KWBC 250600
MTRCSG
METAR KCSG 250551Z 00000KT 10SM CLR 12/08 A3003 RMK AO2 SLP167 T01220078
10178 20117 56003


USA.gov is the U.S. government's official web portal to all federal, state and local government web resources and services.